Time;durP1;ratioP1;P1;durP2;ratioP2;P2;SDS_P1;SDS_P2;PMS_P1;PMS_P2;Temp;Humidity;BMP_temperature;BMP_pressure;BME280_temperature;BME280_humidity;BME280_pressure;Samples;Min_cycle;Max_cycle;Signal;HPM_P1;HPM_P2
2022/06/29 00:00:16;;;;;;;3.50;3.20;;;;;;;18.49;91.29;97997.38;5037302;28;20252;-69
2022/06/29 00:02:43;;;;;;;3.87;3.33;;;;;;;18.36;92.48;97981.78;5036463;28;20213;-70
2022/06/29 00:05:11;;;;;;;3.70;3.40;;;;;;;18.32;93.60;97989.56;5036382;28;20645;-70
2022/06/29 00:07:38;;;;;;;3.63;3.33;;;;;;;18.30;93.72;97982.84;5036645;28;20215;-69
2022/06/29 00:10:05;;;;;;;3.30;3.10;;;;;;;18.24;94.51;97978.53;5036310;28;20202;-69
2022/06/29 00:12:32;;;;;;;5.03;4.03;;;;;;;18.23;95.21;97974.25;5036165;28;20771;-69
2022/06/29 00:15:02;;;;;;;3.90;3.57;;;;;;;18.19;94.55;97973.94;5036234;28;20212;-69
2022/06/29 00:17:29;;;;;;;3.93;3.50;;;;;;;18.15;94.86;97972.09;5036499;28;20580;-69
2022/06/29 00:19:55;;;;;;;3.70;3.40;;;;;;;18.10;95.81;97966.69;5036069;28;20312;-69
2022/06/29 00:22:22;;;;;;;5.23;3.90;;;;;;;18.09;95.44;97962.41;5036344;28;20202;-69
2022/06/29 00:24:48;;;;;;;3.90;3.60;;;;;;;18.15;94.62;97956.72;5036326;28;20297;-69
2022/06/29 00:27:15;;;;;;;3.63;3.27;;;;;;;18.02;95.74;97953.78;5036168;28;20210;-70
2022/06/29 00:29:41;;;;;;;4.07;3.67;;;;;;;18.07;97.03;97940.31;5036230;28;20228;-69
2022/06/29 00:32:08;;;;;;;4.87;3.77;;;;;;;18.11;96.16;97946.78;5036094;28;20236;-69
2022/06/29 00:34:36;;;;;;;3.90;3.60;;;;;;;18.03;96.98;97937.38;5036150;28;20205;-69
2022/06/29 00:37:03;;;;;;;3.93;3.53;;;;;;;17.97;97.07;97938.44;5035792;28;20205;-69
2022/06/29 00:39:30;;;;;;;4.67;3.53;;;;;;;17.98;97.63;97933.88;5035658;28;20226;-69
2022/06/29 00:41:56;;;;;;;4.03;3.73;;;;;;;18.04;97.34;97927.41;5036013;28;20213;-69
2022/06/29 00:44:23;;;;;;;3.77;3.37;;;;;;;18.06;97.55;97936.03;5035977;28;20221;-69
2022/06/29 00:46:55;;;;;;;3.93;3.63;;;;;;;18.03;98.67;97936.56;5035913;28;20213;-69
2022/06/29 00:49:23;;;;;;;3.83;3.50;;;;;;;17.94;99.27;97933.59;5035575;28;20329;-69
2022/06/29 00:52:12;;;;;;;3.97;3.77;;;;;;;17.96;97.84;97934.13;5035446;28;20584;-69
2022/06/29 00:54:41;;;;;;;4.20;3.90;;;;;;;17.90;98.47;97923.63;5035842;28;20303;-69
2022/06/29 00:57:24;;;;;;;4.57;3.80;;;;;;;17.94;98.84;97924.72;5035397;28;20691;-69
2022/06/29 00:59:59;;;;;;;4.10;3.80;;;;;;;17.99;98.07;97930.09;5035312;28;20221;-69
2022/06/29 01:02:32;;;;;;;4.27;3.90;;;;;;;18.01;98.23;97925.25;5035457;28;20272;-69
2022/06/29 01:04:59;;;;;;;4.63;4.27;;;;;;;17.99;98.03;97930.91;5035596;28;20296;-69
2022/06/29 01:07:27;;;;;;;4.23;3.90;;;;;;;18.00;97.98;97924.44;5035575;28;20232;-69
2022/06/29 01:09:55;;;;;;;4.20;3.90;;;;;;;18.00;98.15;97927.13;5035415;28;20232;-69
2022/06/29 01:12:23;;;;;;;4.40;4.00;;;;;;;18.02;97.93;97913.44;5035019;28;20589;-69
2022/06/29 01:14:51;;;;;;;4.40;4.10;;;;;;;18.04;98.13;97922.84;5035314;28;20298;-69
2022/06/29 01:17:19;;;;;;;4.73;4.27;;;;;;;18.05;98.01;97927.13;5035308;28;20218;-69
2022/06/29 01:19:46;;;;;;;4.20;3.87;;;;;;;18.03;98.77;97929.31;5035244;28;20316;-69
2022/06/29 01:22:17;;;;;;;4.10;3.80;;;;;;;18.01;98.41;97920.69;5034954;28;20732;-69
2022/06/29 01:24:45;;;;;;;4.37;3.97;;;;;;;18.01;97.81;97922.56;5034932;28;20225;-69
2022/06/29 01:27:14;;;;;;;4.77;3.80;;;;;;;17.99;97.24;97930.09;5035162;28;20288;-69
2022/06/29 01:29:41;;;;;;;4.47;4.07;;;;;;;18.00;97.17;97932.53;5034744;28;20229;-70
2022/06/29 01:32:08;;;;;;;4.63;4.10;;;;;;;17.92;97.73;97924.97;5035020;28;20230;-69
2022/06/29 01:34:36;;;;;;;4.23;3.93;;;;;;;17.89;98.04;97928.22;5034702;28;20740;-69
2022/06/29 01:37:04;;;;;;;4.30;3.90;;;;;;;17.79;99.74;97932.78;5034956;28;20244;-69
2022/06/29 01:39:31;;;;;;;6.30;4.10;;;;;;;17.79;100.00;97936.28;5034565;28;20316;-69
2022/06/29 01:41:58;;;;;;;4.50;4.07;;;;;;;17.69;100.00;97946.22;5034875;28;20220;-70
2022/06/29 01:44:25;;;;;;;4.37;4.07;;;;;;;17.59;100.00;97941.63;5034525;28;20216;-69
2022/06/29 01:46:51;;;;;;;4.63;4.13;;;;;;;17.61;100.00;97944.88;5034493;28;20752;-69
2022/06/29 01:49:17;;;;;;;4.93;3.80;;;;;;;17.63;100.00;97952.63;5034440;28;20234;-69
2022/06/29 01:51:44;;;;;;;4.87;4.47;;;;;;;17.64;100.00;97941.63;5034251;28;20233;-69
2022/06/29 01:54:10;;;;;;;4.47;4.07;;;;;;;17.66;100.00;97939.50;5034688;28;20216;-69
2022/06/29 01:56:37;;;;;;;4.67;4.27;;;;;;;17.62;100.00;97942.97;5034585;28;20205;-69
2022/06/29 01:59:03;;;;;;;4.40;4.10;;;;;;;17.67;100.00;97938.41;5034219;28;20312;-69
2022/06/29 02:01:30;;;;;;;4.47;3.83;;;;;;;17.66;100.00;97944.88;5034262;28;20569;-69
2022/06/29 02:03:56;;;;;;;4.80;4.40;;;;;;;17.60;100.00;97935.16;5034478;28;20206;-69
2022/06/29 02:06:23;;;;;;;5.00;4.30;;;;;;;17.57;100.00;97938.41;5034393;28;20213;-70
2022/06/29 02:08:49;;;;;;;7.80;4.97;;;;;;;17.56;100.00;97931.38;5033992;28;20233;-69
2022/06/29 02:11:16;;;;;;;5.00;4.50;;;;;;;17.56;100.00;97928.69;5033956;28;20652;-69
2022/06/29 02:13:42;;;;;;;8.77;4.60;;;;;;;17.45;100.00;97929.75;5033649;28;20206;-69
2022/06/29 02:16:09;;;;;;;5.13;4.73;;;;;;;17.47;100.00;97930.28;5034254;28;20202;-69
2022/06/29 02:18:35;;;;;;;5.03;4.53;;;;;;;17.43;100.00;97933.78;5033854;28;20771;-69
2022/06/29 02:21:02;;;;;;;4.83;4.43;;;;;;;17.37;100.00;97930.25;5034673;28;20209;-69
2022/06/29 02:23:28;;;;;;;6.00;5.10;;;;;;;17.37;100.00;97926.78;5034126;28;20202;-69
2022/06/29 02:25:55;;;;;;;5.00;4.50;;;;;;;17.40;100.00;97924.38;5034093;28;20301;-69
2022/06/29 02:28:21;;;;;;;5.20;4.70;;;;;;;17.47;100.00;97914.16;5034000;28;20252;-70
2022/06/29 02:36:15;;;;;;;5.10;4.63;;;;;;;17.41;100.00;97885.69;5033933;28;20553;-69
2022/06/29 02:38:42;;;;;;;6.63;5.40;;;;;;;17.42;100.00;97891.88;5033818;28;20313;-69
2022/06/29 02:41:08;;;;;;;5.53;5.03;;;;;;;17.41;100.00;97888.38;5033506;28;20216;-69
2022/06/29 02:43:34;;;;;;;5.67;4.73;;;;;;;17.38;100.00;97888.06;5033800;28;20293;-69
2022/06/29 02:46:01;;;;;;;6.77;5.00;;;;;;;17.33;100.00;97894.22;5033725;28;20212;-69
2022/06/29 02:48:27;;;;;;;6.17;4.67;;;;;;;17.31;100.00;97899.06;5033601;28;20316;-69
2022/06/29 02:50:54;;;;;;;5.40;4.77;;;;;;;17.29;100.00;97895.81;5033375;28;20205;-69
2022/06/29 02:53:20;;;;;;;5.00;4.50;;;;;;;17.30;100.00;97891.28;5033649;28;20225;-69
2022/06/29 02:55:50;;;;;;;7.83;4.87;;;;;;;17.26;100.00;97891.00;5033625;28;20206;-69
2022/06/29 02:58:18;;;;;;;5.10;4.70;;;;;;;17.21;100.00;97888.31;5033079;28;20229;-69
2022/06/29 03:00:44;;;;;;;5.40;4.90;;;;;;;17.21;100.00;97888.31;5033264;28;20205;-69
2022/06/29 03:03:10;;;;;;;4.77;4.43;;;;;;;17.21;100.00;97898.22;5033505;28;20205;-69
2022/06/29 03:05:37;;;;;;;5.40;4.73;;;;;;;17.24;100.00;97900.41;5033108;28;20206;-69
2022/06/29 03:08:04;;;;;;;5.37;4.60;;;;;;;17.20;100.00;97900.09;5033417;28;20233;-69
2022/06/29 03:10:30;;;;;;;5.47;4.93;;;;;;;17.22;100.00;97905.22;5033351;28;20206;-69
2022/06/29 03:12:57;;;;;;;5.40;4.90;;;;;;;17.21;100.00;97904.44;5033007;28;20768;-69
2022/06/29 03:15:25;;;;;;;5.80;4.77;;;;;;;17.14;100.00;97901.16;5032990;28;20232;-70
2022/06/29 03:17:52;;;;;;;5.43;4.93;;;;;;;17.18;100.00;97896.88;5032875;28;20304;-69
2022/06/29 03:20:19;;;;;;;6.67;4.60;;;;;;;17.09;100.00;97890.41;5032896;28;20593;-69
2022/06/29 03:22:46;;;;;;;5.37;4.87;;;;;;;17.11;100.00;97888.28;5033005;28;20576;-69
2022/06/29 03:25:13;;;;;;;9.60;5.40;;;;;;;17.10;100.00;97885.84;5036913;28;20275;-70
2022/06/29 03:27:39;;;;;;;6.10;5.03;;;;;;;17.16;100.00;97896.34;5036853;28;20300;-69
2022/06/29 03:30:07;;;;;;;8.77;5.77;;;;;;;17.21;100.00;97904.44;5037033;28;20296;-70
2022/06/29 03:32:33;;;;;;;7.03;5.93;;;;;;;17.24;100.00;97900.41;5036888;28;20308;-70
2022/06/29 03:34:59;;;;;;;7.13;5.83;;;;;;;17.26;100.00;97892.88;5036530;28;20210;-70
2022/06/29 03:37:26;;;;;;;6.87;6.27;;;;;;;17.23;100.00;97888.84;5037053;28;20296;-70
2022/06/29 03:39:52;;;;;;;6.30;5.80;;;;;;;17.26;100.00;97882.94;5036478;28;20779;-70
2022/06/29 03:42:19;;;;;;;8.67;5.87;;;;;;;17.22;100.00;97878.34;5036901;28;20297;-70
2022/06/29 03:44:45;;;;;;;7.07;6.37;;;;;;;17.21;100.00;97885.63;5036752;28;20209;-70
2022/06/29 03:47:11;;;;;;;7.83;6.43;;;;;;;17.11;100.00;97879.41;5036516;28;20208;-70
2022/06/29 03:49:38;;;;;;;7.20;6.50;;;;;;;17.07;100.00;97873.75;5036495;28;20320;-70
2022/06/29 03:52:05;;;;;;;6.97;6.27;;;;;;;17.16;100.00;97885.59;5036829;28;20257;-70
2022/06/29 03:54:32;;;;;;;7.87;6.30;;;;;;;17.20;100.00;97881.28;5036915;28;20206;-69
2022/06/29 03:56:59;;;;;;;6.50;6.00;;;;;;;17.21;100.00;97872.19;5036759;28;20228;-69
2022/06/29 03:59:25;;;;;;;7.17;6.57;;;;;;;17.22;100.00;97881.03;5036628;28;20230;-70
2022/06/29 04:01:51;;;;;;;9.17;7.00;;;;;;;17.22;100.00;97881.84;5036403;28;20576;-69
2022/06/29 04:04:18;;;;;;;6.93;6.33;;;;;;;17.24;100.00;97879.69;5036401;28;20206;-69
2022/06/29 04:06:44;;;;;;;7.10;6.30;;;;;;;17.23;100.00;97888.84;5036337;28;20293;-69
2022/06/29 04:09:10;;;;;;;7.60;6.10;;;;;;;17.26;100.00;97882.13;5036280;28;20232;-69
2022/06/29 04:11:56;;;;;;;8.90;6.53;;;;;;;17.22;100.00;97883.72;5037159;28;20301;-69
2022/06/29 04:14:25;;;;;;;6.93;6.20;;;;;;;17.24;100.00;97885.06;5036404;28;20202;-69
2022/06/29 04:16:53;;;;;;;6.90;6.20;;;;;;;17.29;100.00;97882.38;5036355;28;20205;-69
2022/06/29 04:19:19;;;;;;;6.80;6.20;;;;;;;17.35;100.00;97885.91;5036249;28;20256;-69
2022/06/29 04:21:46;;;;;;;10.07;7.87;;;;;;;17.44;100.00;97884.34;5035713;28;20224;-69
2022/06/29 04:24:13;;;;;;;7.90;7.10;;;;;;;17.46;100.00;97891.06;5036031;28;20313;-68
2022/06/29 04:26:40;;;;;;;9.63;7.93;;;;;;;17.49;100.00;97887.03;5035544;28;20218;-69
2022/06/29 04:29:06;;;;;;;8.60;7.90;;;;;;;17.50;100.00;97884.09;5036040;28;20225;-69
2022/06/29 04:31:33;;;;;;;8.27;7.47;;;;;;;17.55;100.00;97885.97;5035974;28;20202;-69
2022/06/29 04:34:01;;;;;;;7.47;6.80;;;;;;;17.56;100.00;97883.00;5035541;28;20233;-69
2022/06/29 04:36:28;;;;;;;8.77;7.63;;;;;;;17.58;100.00;97886.25;5035035;28;20210;-69
2022/06/29 04:38:55;;;;;;;8.63;7.77;;;;;;;17.55;100.00;97886.78;5035490;28;20226;-69
2022/06/29 04:41:22;;;;;;;9.30;8.23;;;;;;;17.60;100.00;97900.22;5035252;28;20549;-69
2022/06/29 04:43:49;;;;;;;8.60;7.70;;;;;;;17.63;100.00;97898.88;5035246;28;20490;-68
2022/06/29 04:46:22;;;;;;;8.03;7.17;;;;;;;17.67;100.00;97892.72;5035211;28;20306;-68
2022/06/29 04:48:58;;;;;;;10.93;7.10;;;;;;;17.69;100.00;97893.22;5035123;28;20778;-69
2022/06/29 04:51:27;;;;;;;8.63;6.90;;;;;;;17.76;100.00;97893.78;5035405;28;20186;-69
2022/06/29 04:53:55;;;;;;;8.13;7.13;;;;;;;17.79;100.00;97893.25;5035235;28;20229;-69
2022/06/29 04:56:24;;;;;;;8.53;7.73;;;;;;;17.83;100.00;97891.63;5035269;28;20217;-69
2022/06/29 04:58:53;;;;;;;7.37;6.70;;;;;;;17.85;100.00;97894.88;5034865;28;20229;-69
2022/06/29 05:01:21;;;;;;;7.67;6.20;;;;;;;17.83;100.00;97894.31;5035022;28;20210;-69
2022/06/29 05:03:48;;;;;;;7.13;6.43;;;;;;;17.77;100.00;97891.88;5035061;28;20206;-69
2022/06/29 05:06:14;;;;;;;7.60;6.63;;;;;;;17.83;100.00;97891.63;5034744;28;20744;-69
2022/06/29 05:08:40;;;;;;;9.73;7.03;;;;;;;17.89;100.00;97889.75;5034829;28;20222;-69
2022/06/29 05:11:07;;;;;;;6.97;6.37;;;;;;;18.07;100.00;97889.22;5035115;28;20301;-69
2022/06/29 05:13:33;;;;;;;7.63;6.87;;;;;;;18.10;100.00;97891.38;5034809;28;20226;-69
2022/06/29 05:16:00;;;;;;;7.07;6.57;;;;;;;18.08;100.00;97897.00;5034797;28;20292;-69
2022/06/29 05:18:28;;;;;;;7.17;6.57;;;;;;;18.12;100.00;97886.50;5034205;28;20718;-69
2022/06/29 05:20:55;;;;;;;8.13;7.23;;;;;;;17.94;100.00;97900.50;5034198;28;20202;-69
2022/06/29 05:23:21;;;;;;;8.23;7.43;;;;;;;17.95;100.00;97899.44;5034052;28;20633;-69
2022/06/29 05:25:48;;;;;;;7.73;7.07;;;;;;;17.88;100.00;97901.59;5034443;28;20209;-69
2022/06/29 05:28:14;;;;;;;8.17;7.47;;;;;;;17.85;100.00;97894.88;5034862;28;20312;-69
2022/06/29 05:30:40;;;;;;;7.90;7.20;;;;;;;17.79;100.00;97901.34;5034539;28;20224;-69
2022/06/29 05:33:07;;;;;;;10.10;7.20;;;;;;;17.81;100.00;97896.47;5034254;28;20222;-69
2022/06/29 05:35:34;;;;;;;8.37;6.10;;;;;;;17.86;100.00;97893.78;5034244;28;20213;-70
2022/06/29 05:38:02;;;;;;;7.77;7.07;;;;;;;17.87;100.00;97902.69;5033580;28;20305;-69
2022/06/29 05:40:30;;;;;;;7.97;7.17;;;;;;;17.93;100.00;97897.03;5033923;28;20234;-69
2022/06/29 05:42:58;;;;;;;8.23;7.13;;;;;;;17.99;100.00;97903.19;5033858;28;20691;-69
2022/06/29 05:45:26;;;;;;;8.63;7.07;;;;;;;17.98;100.00;97904.28;5034150;28;20206;-69
2022/06/29 05:47:53;;;;;;;7.60;6.87;;;;;;;17.91;100.00;97903.75;5032661;28;20297;-69
2022/06/29 05:50:24;;;;;;;8.77;6.87;;;;;;;18.13;100.00;97905.06;5033793;28;20222;-69
2022/06/29 05:52:51;;;;;;;9.20;8.40;;;;;;;18.14;100.00;97906.69;5033890;28;20218;-69
2022/06/29 05:55:18;;;;;;;7.67;7.03;;;;;;;18.32;100.00;97902.66;5032743;28;20618;-71
2022/06/29 05:57:45;;;;;;;8.50;7.70;;;;;;;18.48;99.61;97899.69;5033453;28;20293;-70
2022/06/29 06:00:12;;;;;;;9.40;7.10;;;;;;;18.66;97.29;97901.78;5033351;28;20661;-70
2022/06/29 06:02:39;;;;;;;8.03;7.43;;;;;;;18.72;96.25;97898.00;5033674;28;20637;-70
2022/06/29 06:05:06;;;;;;;8.13;7.37;;;;;;;18.87;95.55;97895.22;5034348;28;20216;-70
2022/06/29 06:07:33;;;;;;;10.63;7.40;;;;;;;18.91;95.54;97898.19;5033584;28;20217;-70
2022/06/29 06:09:59;;;;;;;8.13;7.33;;;;;;;19.10;95.40;97893.81;5033832;28;20269;-69
2022/06/29 06:12:26;;;;;;;7.37;6.63;;;;;;;19.18;94.66;97885.94;5033065;28;20210;-70
2022/06/29 06:14:52;;;;;;;9.23;6.93;;;;;;;19.37;93.64;97899.63;5033504;28;20296;-69
2022/06/29 06:17:19;;;;;;;7.23;6.53;;;;;;;19.23;92.41;97890.53;5033295;28;20272;-70
2022/06/29 06:19:45;;;;;;;7.47;6.70;;;;;;;19.22;93.77;97897.81;5033665;28;20226;-70
2022/06/29 06:22:12;;;;;;;7.90;7.20;;;;;;;19.28;92.72;97895.91;5033646;28;20211;-70
2022/06/29 06:24:39;;;;;;;7.10;6.50;;;;;;;19.38;91.88;97899.34;5034038;28;20259;-69
2022/06/29 06:27:05;;;;;;;6.87;6.20;;;;;;;19.31;92.29;97898.00;5033797;28;20214;-70
2022/06/29 06:29:32;;;;;;;7.73;7.03;;;;;;;19.29;92.35;97901.00;5033281;28;20228;-70
2022/06/29 06:31:58;;;;;;;7.37;6.63;;;;;;;19.51;91.50;97896.00;5033530;28;20289;-70
2022/06/29 06:34:26;;;;;;;7.83;7.10;;;;;;;19.45;91.15;97894.44;5033099;28;20232;-69
2022/06/29 06:36:52;;;;;;;9.33;6.83;;;;;;;19.55;91.61;97896.28;5033409;28;20206;-68
2022/06/29 06:39:18;;;;;;;7.83;6.83;;;;;;;19.63;90.81;97894.88;5033476;28;20323;-70
2022/06/29 06:41:44;;;;;;;8.40;6.87;;;;;;;19.67;89.82;97890.53;5033254;28;20241;-70
2022/06/29 06:44:10;;;;;;;7.20;6.50;;;;;;;19.82;89.17;97893.91;5033253;28;20229;-70
2022/06/29 06:46:37;;;;;;;7.73;7.07;;;;;;;20.04;88.07;97893.47;5033400;28;20210;-69
2022/06/29 06:49:03;;;;;;;7.40;6.80;;;;;;;20.09;87.92;97896.97;5032657;28;20328;-70
2022/06/29 06:51:30;;;;;;;7.67;6.63;;;;;;;20.15;86.28;97906.63;5032343;28;20830;-70
2022/06/29 06:53:59;;;;;;;10.23;6.90;;;;;;;20.08;85.72;97900.72;5032935;28;20230;-69
2022/06/29 06:56:25;;;;;;;7.17;6.40;;;;;;;20.25;85.97;97897.66;5032671;28;20210;-69
2022/06/29 06:58:52;;;;;;;9.33;6.40;;;;;;;20.23;85.25;97899.81;5032289;28;20615;-69
2022/06/29 07:01:18;;;;;;;9.97;6.57;;;;;;;20.33;85.28;97897.81;5032913;28;20283;-69
2022/06/29 07:03:45;;;;;;;7.90;6.37;;;;;;;20.26;83.24;97902.72;5032743;28;20198;-69
2022/06/29 07:06:11;;;;;;;6.70;6.13;;;;;;;20.47;84.53;97904.16;5032955;28;20237;-69
2022/06/29 07:08:39;;;;;;;7.30;6.37;;;;;;;20.72;83.63;97905.78;5032614;28;20705;-69
2022/06/29 07:11:07;;;;;;;9.10;6.47;;;;;;;20.71;81.62;97912.28;5032985;28;20208;-69
2022/06/29 07:13:34;;;;;;;8.17;6.57;;;;;;;20.75;81.37;97913.34;5032815;28;20243;-70
2022/06/29 07:16:05;;;;;;;10.83;7.13;;;;;;;20.86;81.25;97917.50;5032856;28;20212;-69
2022/06/29 07:18:32;;;;;;;11.97;7.10;;;;;;;20.96;80.35;97909.31;5032749;28;20225;-69
2022/06/29 07:20:59;;;;;;;12.80;7.40;;;;;;;20.90;81.42;97905.88;5032912;28;20202;-69
2022/06/29 07:23:25;;;;;;;9.50;7.07;;;;;;;20.94;80.84;97896.09;5032988;28;20293;-70
2022/06/29 07:25:51;;;;;;;17.47;7.23;;;;;;;20.98;80.85;97893.63;5032804;28;20260;-69
2022/06/29 07:28:18;;;;;;;13.07;6.90;;;;;;;21.03;80.67;97899.75;5032655;28;20225;-70
2022/06/29 07:30:44;;;;;;;8.97;6.50;;;;;;;21.20;80.41;97899.31;5032687;28;20328;-69
2022/06/29 07:33:11;;;;;;;9.73;6.70;;;;;;;21.31;79.55;97895.34;5032304;28;20274;-69
2022/06/29 07:35:37;;;;;;;12.93;6.50;;;;;;;21.46;78.92;97897.84;5032608;28;20248;-69
2022/06/29 07:38:04;;;;;;;10.47;6.47;;;;;;;21.25;79.03;97899.22;5032725;28;20329;-70
2022/06/29 07:40:30;;;;;;;7.40;5.67;;;;;;;21.47;80.53;97902.97;5032149;28;20568;-70
2022/06/29 07:42:57;;;;;;;10.80;6.37;;;;;;;21.53;77.87;97895.59;5032529;28;20669;-70
2022/06/29 07:45:24;;;;;;;8.53;6.17;;;;;;;21.42;77.73;97899.50;5032688;28;20339;-70
2022/06/29 07:47:52;;;;;;;8.13;6.30;;;;;;;21.57;75.65;97902.03;5032245;28;20783;-70
2022/06/29 07:50:18;;;;;;;6.23;5.53;;;;;;;21.75;74.88;97903.94;5031930;28;20237;-69
2022/06/29 07:52:45;;;;;;;6.83;5.70;;;;;;;21.70;75.64;97899.41;5032292;28;20206;-70
2022/06/29 07:55:12;;;;;;;6.90;5.40;;;;;;;21.66;74.89;97894.84;5032474;28;20222;-69
2022/06/29 07:57:38;;;;;;;6.20;5.60;;;;;;;21.83;74.58;97903.25;5032522;28;20210;-70
2022/06/29 08:00:06;;;;;;;5.90;5.40;;;;;;;22.12;74.36;97898.47;5032621;28;20292;-70
2022/06/29 08:02:32;;;;;;;5.77;5.27;;;;;;;22.13;75.56;97900.91;5033447;28;20217;-70
2022/06/29 08:05:00;;;;;;;6.13;5.07;;;;;;;22.28;72.66;97897.09;5032782;28;20293;-71
2022/06/29 08:07:26;;;;;;;5.10;4.70;;;;;;;22.51;71.95;97904.31;5032723;28;20292;-70
2022/06/29 08:09:53;;;;;;;5.30;4.55;;;;;;;22.39;70.61;97898.53;5032648;28;20226;-70
2022/06/29 08:12:20;;;;;;;7.07;4.40;;;;;;;22.48;71.11;97903.00;5035292;28;20213;-70
2022/06/29 08:14:47;;;;;;;4.72;4.40;;;;;;;22.56;68.67;97894.19;5036049;28;20333;-70
2022/06/29 08:17:13;;;;;;;6.40;4.57;;;;;;;22.56;67.33;97902.31;5036181;28;20213;-70
2022/06/29 08:19:40;;;;;;;4.70;4.30;;;;;;;22.68;67.94;97896.41;5036096;28;20236;-70
2022/06/29 08:22:06;;;;;;;4.22;3.92;;;;;;;22.62;66.24;97900.31;5036084;28;20288;-70
2022/06/29 08:24:32;;;;;;;3.97;3.65;;;;;;;22.73;66.11;97890.88;5035626;28;20289;-70
2022/06/29 08:26:59;;;;;;;4.72;4.20;;;;;;;22.72;66.51;97886.56;5035670;28;20717;-70
2022/06/29 08:29:25;;;;;;;4.75;4.30;;;;;;;22.77;66.84;97883.75;5035588;28;20226;-70
2022/06/29 08:31:52;;;;;;;5.65;5.15;;;;;;;22.62;66.98;97890.28;5035863;28;20210;-70
2022/06/29 08:34:18;;;;;;;6.45;4.13;;;;;;;22.81;66.81;97887.47;5035729;28;20228;-70
2022/06/29 08:36:44;;;;;;;5.40;4.30;;;;;;;22.76;67.56;97882.16;5035313;28;20296;-70
2022/06/29 08:39:11;;;;;;;8.25;4.40;;;;;;;22.91;67.38;97881.84;5035487;28;20725;-70
2022/06/29 08:41:40;;;;;;;6.43;4.80;;;;;;;23.05;67.46;97885.34;5036355;28;20210;-70
2022/06/29 08:44:07;;;;;;;4.32;4.03;;;;;;;23.32;64.35;97879.91;5035656;28;20212;-69
2022/06/29 08:46:33;;;;;;;5.03;4.63;;;;;;;23.11;63.70;97884.16;5035373;28;20221;-69
2022/06/29 08:49:02;;;;;;;4.43;4.03;;;;;;;23.33;65.39;97882.34;5035384;28;20264;-70
2022/06/29 08:51:33;;;;;;;5.13;4.15;;;;;;;23.50;64.98;97879.78;5035652;28;20281;-70
2022/06/29 08:54:01;;;;;;;4.53;4.20;;;;;;;23.73;64.35;97886.84;5050374;28;20213;-70
2022/06/29 08:56:28;;;;;;;4.50;4.10;;;;;;;24.05;61.73;97888.53;5035472;28;20296;-69
2022/06/29 08:58:55;;;;;;;4.90;4.47;;;;;;;24.06;62.58;97890.94;5035358;28;20313;-69
2022/06/29 09:01:22;;;;;;;4.95;4.20;;;;;;;23.63;61.01;97880.84;5034880;28;20569;-70
2022/06/29 09:03:48;;;;;;;4.40;4.00;;;;;;;23.57;62.09;97877.44;5035550;28;20198;-70
2022/06/29 09:06:15;;;;;;;4.32;3.92;;;;;;;23.39;63.69;97880.31;5035227;28;20612;-70
2022/06/29 09:08:41;;;;;;;5.57;4.40;;;;;;;23.71;62.80;97878.22;5034880;28;20223;-70
2022/06/29 09:11:34;;;;;;;5.25;4.85;;;;;;;23.89;63.89;97879.97;5035316;28;20292;-70
2022/06/29 09:14:13;;;;;;;5.82;4.88;;;;;;;23.95;61.46;97878.75;5033156;28;20229;-70
2022/06/29 09:17:04;;;;;;;5.65;5.13;;;;;;;23.75;62.55;97873.75;5035027;28;20312;-71
2022/06/29 09:19:45;;;;;;;5.45;5.00;;;;;;;24.19;62.31;97871.06;5034778;28;20230;-71
2022/06/29 09:22:12;;;;;;;5.75;5.22;;;;;;;24.13;60.99;97871.50;5034817;28;20190;-71
2022/06/29 09:24:39;;;;;;;5.07;4.35;;;;;;;24.38;62.33;97870.88;5034936;28;20289;-71
2022/06/29 09:27:11;;;;;;;4.82;4.40;;;;;;;24.47;61.25;97872.50;5034802;28;20317;-71
2022/06/29 09:29:41;;;;;;;6.43;4.75;;;;;;;24.55;60.59;97873.66;5035403;28;20559;-70
2022/06/29 09:32:08;;;;;;;5.18;4.78;;;;;;;24.69;59.61;97877.13;5034776;28;20206;-70
2022/06/29 09:34:37;;;;;;;5.07;4.45;;;;;;;24.22;60.56;97867.75;5035075;28;20560;-70
2022/06/29 09:37:05;;;;;;;4.85;4.45;;;;;;;24.28;61.44;97873.84;5034700;28;20237;-70
2022/06/29 09:39:36;;;;;;;6.25;4.93;;;;;;;24.33;60.52;97873.72;5034035;28;20222;-71
2022/06/29 09:42:07;;;;;;;5.45;5.00;;;;;;;23.86;61.11;97871.59;5034452;28;20288;-70
2022/06/29 09:44:33;;;;;;;4.72;4.22;;;;;;;23.65;63.39;97865.06;5034459;28;20190;-70
2022/06/29 09:47:07;;;;;;;6.10;5.03;;;;;;;23.94;61.67;97874.44;5034025;28;20296;-70
2022/06/29 09:49:36;;;;;;;5.63;5.13;;;;;;;24.22;63.62;97872.38;5034102;28;20238;-68
2022/06/29 09:52:05;;;;;;;21.58;19.58;;;;;;;24.01;64.51;97874.00;5034044;28;20740;-70
2022/06/29 09:54:40;;;;;;;6.70;6.03;;;;;;;23.93;64.89;97875.53;5034254;28;20304;-68
2022/06/29 09:57:09;;;;;;;9.27;6.53;;;;;;;23.97;65.38;97875.72;5033986;28;20212;-69
2022/06/29 10:02:36;;;;;;;7.68;6.93;;;;;;;23.40;64.04;97871.06;5033883;28;20220;-69
2022/06/29 10:05:06;;;;;;;4.38;4.00;;;;;;;23.29;66.47;97875.13;5034003;28;20521;-69
2022/06/29 10:07:34;;;;;;;4.95;4.20;;;;;;;23.30;69.03;97863.16;5033482;28;20216;-69
2022/06/29 10:10:02;;;;;;;4.85;4.45;;;;;;;23.45;67.82;97879.09;5033670;28;20251;-69
2022/06/29 10:15:57;;;;;;;5.20;4.30;;;;;;;23.42;68.42;97863.44;5033645;28;20304;-69
2022/06/29 10:18:39;;;;;;;5.72;5.22;;;;;;;23.35;67.29;97858.44;5033860;28;20229;-69
2022/06/29 10:21:23;;;;;;;9.77;8.75;;;;;;;23.28;65.37;97862.63;5033518;28;20241;-69
2022/06/29 10:23:54;;;;;;;7.75;7.00;;;;;;;23.19;64.93;97872.59;5034283;28;20209;-69
2022/06/29 10:26:27;;;;;;;6.18;5.68;;;;;;;23.26;66.23;97875.72;5033454;28;20673;-69
2022/06/29 10:28:53;;;;;;;5.57;4.25;;;;;;;23.33;65.69;97862.56;5033332;28;20222;-69
2022/06/29 10:31:52;;;;;;;10.40;7.30;;;;;;;23.44;66.31;97872.06;5032986;28;20213;-69
2022/06/29 10:34:30;;;;;;;40.10;36.08;;;;;;;23.24;65.36;97872.53;5032333;28;20222;-69
2022/06/29 10:37:04;;;;;;;9.85;6.38;;;;;;;23.32;66.42;97871.78;5033281;28;20209;-69
2022/06/29 10:39:36;;;;;;;4.75;4.10;;;;;;;23.53;66.35;97872.94;5033058;28;20237;-69
2022/06/29 10:45:01;;;;;;;10.38;9.13;;;;;;;23.38;63.38;97867.88;5033691;28;20220;-69
2022/06/29 10:47:28;;;;;;;7.55;3.92;;;;;;;23.46;65.81;97865.22;5033198;28;20212;-69
2022/06/29 10:50:16;;;;;;;9.75;8.88;;;;;;;23.38;65.07;97857.81;5032775;28;20320;-69
2022/06/29 10:52:44;;;;;;;11.10;7.45;;;;;;;23.55;66.35;97865.28;5032986;28;20213;-69
2022/06/29 10:55:11;;;;;;;6.60;3.67;;;;;;;23.59;65.18;97866.28;5032851;28;20226;-69
2022/06/29 10:57:43;;;;;;;4.50;3.75;;;;;;;23.73;65.60;97870.56;5032704;28;20545;-68
2022/06/29 11:00:30;;;;;;;4.82;4.40;;;;;;;23.79;63.71;97865.81;5033378;28;20201;-69
2022/06/29 11:02:57;;;;;;;7.57;4.35;;;;;;;23.70;64.97;97864.94;5032513;28;20288;-69
2022/06/29 11:05:24;;;;;;;6.50;3.80;;;;;;;23.83;64.33;97859.44;5032745;28;20572;-69
2022/06/29 11:13:23;;;;;;;4.53;3.83;;;;;;;23.99;65.16;97855.28;5032687;28;20177;-69
2022/06/29 11:15:50;;;;;;;14.32;10.48;;;;;;;24.04;64.28;97859.78;5032299;28;20665;-69
2022/06/29 11:18:33;;;;;;;7.03;6.07;;;;;;;24.49;65.05;97855.88;5032628;28;20317;-69
2022/06/29 11:21:04;;;;;;;5.22;3.78;;;;;;;24.88;62.36;97853.97;5032770;28;20256;-69
2022/06/29 11:23:35;;;;;;;7.00;5.32;;;;;;;24.58;61.35;97854.81;5032173;28;20271;-69
2022/06/29 11:26:04;;;;;;;4.20;3.67;;;;;;;24.73;61.80;97854.41;5033082;28;20233;-69
2022/06/29 11:28:35;;;;;;;4.68;3.60;;;;;;;25.01;61.89;97846.84;5032669;28;20221;-69
2022/06/29 11:31:07;;;;;;;3.85;3.55;;;;;;;25.23;60.86;97844.78;5032737;28;20561;-70
2022/06/29 11:33:44;;;;;;;8.30;4.10;;;;;;;25.05;60.84;97845.09;5033181;28;20308;-69
2022/06/29 11:36:14;;;;;;;5.53;3.83;;;;;;;24.72;63.16;97846.56;5032381;28;20296;-69
2022/06/29 11:38:43;;;;;;;5.80;4.28;;;;;;;25.09;60.46;97835.97;5032669;28;20313;-69
2022/06/29 11:41:22;;;;;;;3.92;3.50;;;;;;;25.32;60.56;97837.47;5032428;28;20723;-70
2022/06/29 11:44:02;;;;;;;6.68;4.95;;;;;;;25.32;59.37;97833.94;5032709;28;20190;-69
2022/06/29 11:46:31;;;;;;;12.40;11.20;;;;;;;24.59;60.96;97839.28;5035362;28;20197;-69
2022/06/29 11:51:56;;;;;;;5.28;4.28;;;;;;;24.98;60.42;97829.25;5036311;28;20557;-69
2022/06/29 11:54:39;;;;;;;5.82;5.32;;;;;;;24.71;59.15;97834.09;5036640;28;20417;-69
2022/06/29 11:57:08;;;;;;;4.25;3.85;;;;;;;25.23;59.29;97827.69;5036495;28;20288;-69